Time;durP1;ratioP1;P1;durP2;ratioP2;P2;SDS_P1;SDS_P2;PMS_P1;PMS_P2;Temp;Humidity;BMP_temperature;BMP_pressure;BME280_temperature;BME280_humidity;BME280_pressure;Samples;Min_cycle;Max_cycle;Signal;HPM_P1;HPM_P2
2023/08/22 04:22:31;;;;;;;16.98;10.30;;;;;;;19.98;100.00;100501.44;5089572;27;20439;-70
2023/08/22 04:24:57;;;;;;;16.23;10.10;;;;;;;19.97;100.00;100507.91;5088103;28;20028;-70
2023/08/22 04:27:23;;;;;;;16.98;9.70;;;;;;;20.01;100.00;100500.97;5088127;28;20404;-68
2023/08/22 04:29:48;;;;;;;15.38;9.73;;;;;;;20.05;100.00;100495.94;5087752;28;20514;-68
2023/08/22 04:32:14;;;;;;;18.58;10.48;;;;;;;20.12;100.00;100493.16;5087877;28;20020;-69
2023/08/22 04:34:40;;;;;;;17.02;9.68;;;;;;;20.11;100.00;100495.03;5088194;28;20032;-68
2023/08/22 04:37:06;;;;;;;12.55;8.80;;;;;;;20.13;100.00;100498.31;5087749;28;20032;-68
2023/08/22 04:39:31;;;;;;;18.20;10.43;;;;;;;20.15;100.00;100498.94;5087636;28;20483;-69
2023/08/22 04:42:25;;;;;;;14.88;9.75;;;;;;;20.14;100.00;100501.84;5087634;28;20059;-68
2023/08/22 04:44:57;;;;;;;22.73;11.20;;;;;;;20.14;100.00;100508.06;5089014;28;20047;-68
2023/08/22 04:47:23;;;;;;;13.63;9.35;;;;;;;20.13;100.00;100505.63;5087593;28;20040;-68
2023/08/22 04:49:49;;;;;;;20.85;12.45;;;;;;;20.09;100.00;100518.78;5087675;28;20107;-68
2023/08/22 04:52:14;;;;;;;17.35;9.55;;;;;;;20.05;100.00;100510.28;5087676;28;20032;-68
2023/08/22 04:54:41;;;;;;;15.00;9.43;;;;;;;20.12;100.00;100515.59;5087514;28;20032;-69
2023/08/22 04:57:07;;;;;;;19.48;10.98;;;;;;;20.14;100.00;100518.91;5087464;28;20028;-68
2023/08/22 04:59:33;;;;;;;12.15;8.90;;;;;;;20.11;100.00;100515.84;5088500;28;20040;-68
2023/08/22 05:01:58;;;;;;;15.25;10.13;;;;;;;20.12;100.00;100523.72;5087271;28;20024;-69
2023/08/22 05:04:24;;;;;;;19.77;10.90;;;;;;;20.14;100.00;100521.59;5087403;28;20396;-69
2023/08/22 05:06:51;;;;;;;14.10;9.15;;;;;;;20.16;100.00;100522.22;5087244;28;20403;-69
2023/08/22 05:09:16;;;;;;;14.95;8.82;;;;;;;20.16;100.00;100524.09;5088253;28;20048;-69
2023/08/22 05:11:43;;;;;;;11.60;8.13;;;;;;;20.13;100.00;100522.66;5087175;28;20032;-69
2023/08/22 05:14:09;;;;;;;14.73;8.45;;;;;;;20.11;100.00;100521.25;5087233;28;20037;-69
2023/08/22 05:16:35;;;;;;;12.70;8.35;;;;;;;20.16;100.00;100527.63;5087140;28;20131;-69
2023/08/22 05:19:01;;;;;;;15.77;8.90;;;;;;;20.19;100.00;100519.03;5086812;28;20036;-68
2023/08/22 05:21:27;;;;;;;14.52;8.15;;;;;;;20.22;100.00;100520.47;5086903;28;20034;-69
2023/08/22 05:23:52;;;;;;;14.63;8.82;;;;;;;20.24;100.00;100518.34;5086948;28;20044;-69
2023/08/22 05:26:18;;;;;;;15.18;10.05;;;;;;;20.30;100.00;100520.97;5086833;28;20040;-54
2023/08/22 05:28:44;;;;;;;13.93;10.05;;;;;;;20.33;100.00;100522.38;5086655;28;20085;-53
2023/08/22 05:31:21;;;;;;;39.17;10.43;;;;;;;20.40;100.00;100528.50;5088365;28;20032;-54
2023/08/22 05:33:46;;;;;;;15.02;10.43;;;;;;;20.45;100.00;100527.84;5074050;28;20032;-54
2023/08/22 05:36:12;;;;;;;21.13;11.65;;;;;;;20.51;100.00;100527.75;5073226;28;20066;-53
2023/08/22 05:38:37;;;;;;;15.05;10.70;;;;;;;20.56;100.00;100527.06;5072836;28;20064;-57
2023/08/22 05:41:03;;;;;;;14.60;9.95;;;;;;;20.59;100.00;100530.13;5074645;28;20039;-56
2023/08/22 05:43:28;;;;;;;14.98;10.43;;;;;;;20.66;100.00;100538.13;5074496;28;20036;-54
2023/08/22 05:45:54;;;;;;;13.30;9.60;;;;;;;20.74;100.00;100537.81;5073015;28;20131;-54
2023/08/22 05:48:19;;;;;;;17.25;10.68;;;;;;;20.77;100.00;100539.22;5072718;28;20455;-57
2023/08/22 05:50:45;;;;;;;18.90;11.80;;;;;;;20.82;100.00;100540.19;5072812;28;20059;-53
2023/08/22 05:53:10;;;;;;;27.42;11.00;;;;;;;20.91;100.00;100532.53;5072991;28;20028;-53
2023/08/22 05:55:36;;;;;;;15.65;10.80;;;;;;;20.97;100.00;100545.13;5072775;28;20037;-54
2023/08/22 05:58:03;;;;;;;16.37;10.33;;;;;;;21.04;100.00;100545.84;5072918;28;20040;-54
2023/08/22 06:00:28;;;;;;;14.32;10.75;;;;;;;21.09;100.00;100550.56;5072647;28;20282;-52
2023/08/22 06:02:56;;;;;;;19.00;11.00;;;;;;;21.15;100.00;100546.91;5074104;28;20037;-57
2023/08/22 06:05:24;;;;;;;19.90;11.45;;;;;;;21.24;100.00;100552.78;5072830;28;20041;-55
2023/08/22 06:07:49;;;;;;;15.32;10.90;;;;;;;21.31;100.00;100548.09;5073979;28;20040;-56
2023/08/22 06:10:16;;;;;;;19.50;10.40;;;;;;;21.35;100.00;100549.28;5055808;28;20383;-54
2023/08/22 06:12:41;;;;;;;15.70;10.52;;;;;;;21.43;100.00;100551.63;5056050;28;20037;-53
2023/08/22 06:15:07;;;;;;;17.90;10.95;;;;;;;21.53;100.00;100556.47;5072593;28;20595;-54
2023/08/22 06:17:34;;;;;;;18.58;10.73;;;;;;;21.60;100.00;100555.28;5072483;28;20037;-52
2023/08/22 06:19:59;;;;;;;15.30;10.13;;;;;;;21.67;100.00;100552.44;5072300;28;20071;-52
2023/08/22 06:22:25;;;;;;;19.00;10.75;;;;;;;21.78;100.00;100562.44;5072264;28;20119;-54
2023/08/22 06:24:50;;;;;;;16.70;10.88;;;;;;;21.83;100.00;100564.41;5073747;28;20491;-53
2023/08/22 06:27:16;;;;;;;15.43;9.52;;;;;;;21.87;100.00;100555.56;5073596;28;20170;-56
2023/08/22 06:29:41;;;;;;;14.38;9.65;;;;;;;21.96;100.00;100553.28;5072186;28;20064;-57
2023/08/22 06:32:07;;;;;;;12.55;9.70;;;;;;;22.04;100.00;100554.78;5072049;28;20047;-55
2023/08/22 06:34:34;;;;;;;14.80;10.73;;;;;;;22.10;100.00;100559.28;5072182;28;20205;-57
2023/08/22 06:36:59;;;;;;;15.73;10.38;;;;;;;22.21;100.00;100556.53;5072066;28;20511;-57
2023/08/22 06:39:25;;;;;;;15.27;10.00;;;;;;;22.29;100.00;100566.16;5071893;28;20040;-58
2023/08/22 06:41:50;;;;;;;14.02;9.95;;;;;;;22.37;100.00;100564.97;5073342;28;20446;-57
2023/08/22 06:44:22;;;;;;;13.38;8.65;;;;;;;22.43;100.00;100570.25;5071081;28;20032;-55
2023/08/22 06:46:50;;;;;;;16.65;11.07;;;;;;;22.55;100.00;100567.44;5071834;28;20060;-56
2023/08/22 06:49:16;;;;;;;19.20;9.75;;;;;;;22.62;100.00;100572.72;5071637;28;20035;-54
2023/08/22 06:51:42;;;;;;;16.33;9.47;;;;;;;22.72;100.00;100576.44;5071845;28;20063;-57
2023/08/22 06:54:08;;;;;;;13.68;9.10;;;;;;;22.85;100.00;100574.50;5073104;28;20350;-55
2023/08/22 06:56:33;;;;;;;12.40;9.43;;;;;;;22.90;100.00;100572.72;5071801;28;20068;-57
2023/08/22 06:58:58;;;;;;;12.88;9.20;;;;;;;22.98;100.00;100576.91;5072659;28;20123;-56
2023/08/22 07:01:24;;;;;;;16.23;9.02;;;;;;;23.06;100.00;100579.22;5072862;28;20047;-55
2023/08/22 07:03:49;;;;;;;12.95;8.93;;;;;;;23.15;100.00;100576.91;5072745;28;20075;-54
2023/08/22 07:06:15;;;;;;;14.70;8.65;;;;;;;23.21;100.00;100573.19;5072719;28;20044;-54
2023/08/22 07:08:40;;;;;;;11.57;8.98;;;;;;;23.24;100.00;100584.38;5072567;28;20036;-53
2023/08/22 07:11:05;;;;;;;15.48;9.90;;;;;;;23.29;100.00;100579.03;5072585;28;20098;-55
2023/08/22 07:13:32;;;;;;;13.63;9.45;;;;;;;23.37;100.00;100583.22;5072676;28;20041;-54
2023/08/22 07:15:58;;;;;;;15.13;9.82;;;;;;;23.41;100.00;100583.53;5072508;28;20036;-68
2023/08/22 07:18:23;;;;;;;12.35;8.57;;;;;;;23.48;100.00;100584.19;5072489;28;20052;-67
2023/08/22 07:20:51;;;;;;;13.55;9.38;;;;;;;23.56;100.00;100579.16;5072150;28;20394;-69
2023/08/22 07:23:18;;;;;;;15.82;9.98;;;;;;;23.70;100.00;100581.53;5072511;28;20067;-69
2023/08/22 07:25:48;;;;;;;14.15;10.07;;;;;;;23.74;100.00;100580.78;5072217;28;20046;-68
2023/08/22 07:28:14;;;;;;;15.02;9.13;;;;;;;23.78;100.00;100586.53;5071479;28;20060;-69
2023/08/22 07:30:39;;;;;;;12.75;9.45;;;;;;;23.91;100.00;100588.88;5071845;28;20615;-69
2023/08/22 07:33:05;;;;;;;13.65;9.57;;;;;;;23.97;100.00;100584.31;5071949;28;20044;-69
2023/08/22 07:35:33;;;;;;;15.60;9.57;;;;;;;24.01;100.00;100588.19;5072081;28;20479;-68
2023/08/22 07:37:59;;;;;;;13.88;9.18;;;;;;;24.07;100.00;100589.91;5072141;28;20032;-68
2023/08/22 07:40:24;;;;;;;13.68;9.70;;;;;;;24.09;100.00;100587.72;5071944;28;20449;-68
2023/08/22 07:42:49;;;;;;;12.15;9.70;;;;;;;24.19;100.00;100587.88;5072197;28;20072;-68
2023/08/22 07:45:15;;;;;;;12.75;9.45;;;;;;;24.24;100.00;100581.63;5071990;28;20047;-69
2023/08/22 07:47:40;;;;;;;12.45;9.18;;;;;;;24.29;100.00;100581.69;5072089;28;20487;-69
2023/08/22 07:50:06;;;;;;;12.57;9.68;;;;;;;24.37;100.00;100583.97;5071827;28;20036;-69
2023/08/22 07:52:31;;;;;;;12.85;9.05;;;;;;;24.44;100.00;100590.03;5071985;28;20064;-68
2023/08/22 07:54:57;;;;;;;14.07;9.25;;;;;;;24.59;97.50;100592.94;5071877;28;20051;-69
2023/08/22 07:57:22;;;;;;;13.95;9.13;;;;;;;24.60;98.28;100589.13;5071912;28;20073;-68
2023/08/22 07:59:48;;;;;;;13.57;8.73;;;;;;;24.76;96.93;100592.81;5071622;28;20146;-68
2023/08/22 08:02:13;;;;;;;12.35;8.85;;;;;;;24.87;95.58;100593.72;5071858;28;20028;-69
2023/08/22 08:04:39;;;;;;;10.75;8.63;;;;;;;24.88;94.84;100589.91;5071903;28;20376;-69
2023/08/22 08:07:04;;;;;;;11.65;8.57;;;;;;;24.99;92.19;100588.94;5071771;28;20037;-69
2023/08/22 08:09:30;;;;;;;11.43;8.43;;;;;;;25.01;93.35;100586.75;5071651;28;20123;-69
2023/08/22 08:11:55;;;;;;;9.05;8.15;;;;;;;25.14;94.94;100593.69;5071821;28;20037;-70
2023/08/22 08:14:20;;;;;;;12.20;9.13;;;;;;;25.27;93.94;100595.16;5071788;28;20052;-68
2023/08/22 08:16:46;;;;;;;12.63;8.77;;;;;;;25.33;93.80;100594.94;5071468;28;20076;-69
2023/08/22 08:19:13;;;;;;;10.20;8.65;;;;;;;25.37;92.53;100592.50;5070152;28;20067;-70
2023/08/22 08:21:38;;;;;;;10.25;8.15;;;;;;;25.43;92.12;100592.28;5071687;28;20503;-68
2023/08/22 08:24:04;;;;;;;11.98;8.20;;;;;;;25.57;89.12;100583.63;5071664;28;20040;-68
2023/08/22 08:26:30;;;;;;;9.57;7.82;;;;;;;25.72;87.57;100594.63;5071672;28;20040;-68
2023/08/22 08:28:56;;;;;;;11.13;7.90;;;;;;;25.78;88.84;100592.75;5071408;28;20157;-69
2023/08/22 08:31:21;;;;;;;11.13;8.30;;;;;;;25.88;87.58;100590.06;5071533;28;20136;-68
2023/08/22 08:33:47;;;;;;;8.98;7.60;;;;;;;25.91;85.56;100600.47;5071772;28;20048;-69
2023/08/22 08:36:12;;;;;;;11.30;8.07;;;;;;;26.06;84.08;100592.31;5071859;28;20044;-69
2023/08/22 08:38:37;;;;;;;9.82;7.22;;;;;;;26.28;83.69;100575.75;5071337;28;20513;-68
2023/08/22 08:41:03;;;;;;;11.02;7.95;;;;;;;26.38;82.56;100592.16;5071556;28;20040;-69
2023/08/22 08:43:31;;;;;;;12.32;6.68;;;;;;;26.51;81.19;100585.38;5071553;28;20491;-68
2023/08/22 08:45:56;;;;;;;7.75;6.47;;;;;;;26.50;81.22;100579.09;5071323;28;20044;-68
2023/08/22 08:48:22;;;;;;;8.20;6.90;;;;;;;26.48;76.82;100586.75;5071404;28;20040;-69
2023/08/22 08:50:49;;;;;;;11.27;6.80;;;;;;;26.55;75.48;100583.75;5071171;28;20041;-68
2023/08/22 08:53:14;;;;;;;10.73;7.07;;;;;;;26.79;78.86;100582.13;5071405;28;20072;-69
2023/08/22 08:55:40;;;;;;;7.93;5.50;;;;;;;26.97;78.32;100588.97;5071395;28;20060;-68
2023/08/22 08:58:07;;;;;;;9.52;5.60;;;;;;;26.99;71.56;100581.31;5071332;28;20123;-69
2023/08/22 09:00:33;;;;;;;9.55;5.32;;;;;;;27.03;72.69;100587.06;5071033;28;20028;-68
2023/08/22 09:02:59;;;;;;;7.88;4.47;;;;;;;27.05;71.27;100580.22;5071375;28;20064;-68
2023/08/22 09:05:25;;;;;;;7.78;4.28;;;;;;;27.12;67.27;100574.50;5071301;28;20041;-69
2023/08/22 09:07:50;;;;;;;8.43;5.57;;;;;;;27.30;74.61;100584.84;5072646;28;20044;-69
2023/08/22 09:10:33;;;;;;;6.40;4.32;;;;;;;27.30;69.39;100582.13;5074960;28;20029;-68
2023/08/22 09:13:03;;;;;;;6.00;4.20;;;;;;;27.41;67.64;100579.38;5075045;28;20087;-69
2023/08/22 09:15:30;;;;;;;9.23;4.97;;;;;;;27.51;68.05;100577.41;5074908;28;20104;-69
2023/08/22 09:17:56;;;;;;;7.43;4.60;;;;;;;27.60;67.16;100574.97;5074971;28;20032;-68
2023/08/22 09:20:22;;;;;;;6.83;4.47;;;;;;;27.74;65.26;100576.03;5074608;28;20041;-68
2023/08/22 09:22:48;;;;;;;5.75;4.88;;;;;;;27.84;66.21;100576.00;5074966;28;20289;-68
2023/08/22 09:25:13;;;;;;;5.65;3.83;;;;;;;27.96;62.59;100577.56;5074693;28;20487;-68
2023/08/22 09:27:39;;;;;;;5.43;4.07;;;;;;;28.15;65.85;100573.09;5074672;28;20032;-66
2023/08/22 09:30:05;;;;;;;4.68;3.78;;;;;;;28.21;63.04;100580.19;5074416;28;20453;-67
2023/08/22 09:32:31;;;;;;;5.47;4.30;;;;;;;28.47;60.80;100580.06;5074642;28;20075;-69
2023/08/22 09:35:01;;;;;;;5.18;3.85;;;;;;;28.68;59.13;100573.31;5074778;28;20071;-68
2023/08/22 09:37:30;;;;;;;4.68;3.67;;;;;;;28.87;58.56;100574.28;5074585;28;20103;-67
2023/08/22 09:39:56;;;;;;;3.85;3.13;;;;;;;29.02;57.66;100572.56;5074350;28;20032;-67
2023/08/22 09:42:31;;;;;;;4.68;2.95;;;;;;;29.26;54.79;100576.13;5074531;28;20023;-68
2023/08/22 09:44:57;;;;;;;4.22;2.80;;;;;;;29.42;54.55;100576.81;5074431;28;20032;-67
2023/08/22 09:47:28;;;;;;;4.50;3.45;;;;;;;29.67;55.00;100583.97;5074442;28;20029;-68
2023/08/22 09:49:58;;;;;;;3.95;3.10;;;;;;;30.12;53.35;100577.09;5074273;28;20380;-69
2023/08/22 09:52:25;;;;;;;6.40;3.22;;;;;;;30.32;52.05;100572.44;5074313;28;20131;-68
2023/08/22 09:54:54;;;;;;;5.15;3.15;;;;;;;30.76;49.60;100572.06;5074279;28;20048;-67
2023/08/22 09:57:20;;;;;;;5.05;3.10;;;;;;;31.00;49.49;100572.75;5074270;28;20024;-67
2023/08/22 09:59:47;;;;;;;4.18;2.63;;;;;;;31.22;48.75;100561.06;5073927;28;20036;-67
2023/08/22 10:02:14;;;;;;;4.70;2.72;;;;;;;31.57;48.78;100564.31;5074137;28;20044;-67
2023/08/22 10:04:40;;;;;;;;;;;;;;;31.22;47.48;100560.25;5074557;28;20071;-67
2023/08/22 10:07:06;;;;;;;5.43;3.10;;;;;;;31.79;48.28;100556.16;5074045;28;20345;-67
2023/08/22 10:09:32;;;;;;;5.40;2.60;;;;;;;32.12;46.30;100554.06;5073736;28;20032;-67
2023/08/22 10:12:01;;;;;;;4.33;2.60;;;;;;;32.50;43.15;100553.78;5073882;28;20491;-67
2023/08/22 10:14:32;;;;;;;6.28;2.58;;;;;;;32.93;43.59;100556.06;5073976;28;20049;-67
2023/08/22 10:16:59;;;;;;;4.45;2.90;;;;;;;33.18;44.16;100555.34;5073889;28;20116;-68
2023/08/22 10:19:25;;;;;;;3.38;2.30;;;;;;;33.60;42.75;100558.66;5073440;28;20067;-68
2023/08/22 10:21:53;;;;;;;4.80;2.60;;;;;;;33.94;42.05;100557.13;5073668;28;20033;-68
2023/08/22 10:24:30;;;;;;;3.97;2.20;;;;;;;34.26;40.81;100553.94;5073851;28;20729;-68
2023/08/22 10:27:02;;;;;;;3.05;2.47;;;;;;;34.31;43.20;100541.09;5073717;28;20047;-66
2023/08/22 10:29:37;;;;;;;3.78;2.38;;;;;;;34.58;41.00;100539.97;5073253;28;20032;-67
2023/08/22 10:32:03;;;;;;;3.67;2.38;;;;;;;34.26;39.04;100540.09;5073641;28;20036;-67
2023/08/22 10:34:34;;;;;;;2.40;2.00;;;;;;;34.57;40.11;100543.88;5073469;28;20411;-68
2023/08/22 10:37:03;;;;;;;3.38;2.20;;;;;;;34.54;39.38;100543.38;5073692;28;20529;-66
2023/08/22 10:39:48;;;;;;;4.95;2.00;;;;;;;34.83;40.15;100533.56;5073069;28;20040;-67
2023/08/22 10:42:22;;;;;;;3.45;2.25;;;;;;;34.98;39.59;100535.84;5073294;28;20053;-66
2023/08/22 10:44:52;;;;;;;3.45;2.30;;;;;;;34.88;40.88;100532.56;5073360;28;20121;-67
2023/08/22 10:47:28;;;;;;;5.25;2.30;;;;;;;35.13;42.59;100533.66;5073174;28;20043;-67
2023/08/22 10:49:57;;;;;;;3.72;2.50;;;;;;;35.68;38.82;100527.25;5073081;28;20036;-67
2023/08/22 10:52:37;;;;;;;4.32;2.25;;;;;;;35.63;39.04;100533.78;5073147;28;20044;-66
2023/08/22 10:55:03;;;;;;;2.75;2.10;;;;;;;35.72;37.05;100529.00;5073204;28;20495;-67
2023/08/22 10:57:32;;;;;;;3.40;2.37;;;;;;;36.06;38.37;100524.38;5072979;28;20031;-67
2023/08/22 10:59:58;;;;;;;2.85;2.13;;;;;;;35.95;40.44;100529.53;5072733;28;20032;-67
2023/08/22 11:02:27;;;;;;;3.50;2.20;;;;;;;36.16;37.64;100529.53;5072892;28;20048;-68
2023/08/22 11:04:56;;;;;;;3.92;2.38;;;;;;;36.25;39.56;100527.50;5073266;28;20441;-68
2023/08/22 11:07:22;;;;;;;2.67;2.42;;;;;;;36.60;37.61;100524.44;5072827;28;20115;-67
2023/08/22 11:09:48;;;;;;;3.40;2.45;;;;;;;36.76;36.94;100519.88;5072538;28;20032;-67
2023/08/22 11:12:21;;;;;;;3.55;2.63;;;;;;;36.71;37.06;100522.03;5071457;28;20041;-67
2023/08/22 11:14:51;;;;;;;3.53;2.40;;;;;;;36.94;36.68;100520.53;5072675;28;20068;-68
2023/08/22 11:17:18;;;;;;;2.97;2.30;;;;;;;36.92;36.66;100518.09;5072563;28;20044;-68
2023/08/22 11:19:44;;;;;;;3.78;2.22;;;;;;;37.41;36.40;100507.03;5072299;28;20040;-68
2023/08/22 11:22:10;;;;;;;4.07;2.20;;;;;;;37.31;37.36;100518.59;5072618;28;20032;-68
2023/08/22 11:24:36;;;;;;;3.08;2.08;;;;;;;37.45;37.01;100521.88;5072503;28;20032;-67
2023/08/22 11:27:05;;;;;;;4.70;2.53;;;;;;;37.60;36.97;100519.53;5071331;28;20050;-67
2023/08/22 11:29:47;;;;;;;3.85;2.20;;;;;;;38.03;36.05;100523.66;5075516;28;20044;-69
2023/08/22 11:32:45;;;;;;;3.85;2.28;;;;;;;37.97;34.71;100518.34;5076884;28;20055;-69
2023/08/22 11:35:11;;;;;;;4.40;2.03;;;;;;;37.69;36.13;100509.09;5081177;28;20074;-69
2023/08/22 11:37:37;;;;;;;;;;;;;;;37.77;35.61;100513.72;5041129;28;20044;-69
2023/08/22 11:40:12;;;;;;;4.57;2.50;;;;;;;37.51;36.08;100511.34;5071978;28;19958;-68
2023/08/22 11:42:39;;;;;;;2.92;2.45;;;;;;;37.75;34.44;100511.28;5072256;28;20032;-67
2023/08/22 11:45:04;;;;;;;;;;;;;;;37.86;35.15;100505.28;5072702;28;20063;-67
2023/08/22 11:47:42;;;;;;;;;;;;;;;36.90;35.55;100495.41;5072544;28;19916;-68
2023/08/22 11:50:16;;;;;;;4.40;2.30;;;;;;;36.52;35.21;100492.06;5072017;28;20397;-68
2023/08/22 11:52:46;;;;;;;3.85;2.28;;;;;;;36.44;36.22;100495.72;5072118;28;20115;-67
2023/08/22 11:55:20;;;;;;;3.15;2.20;;;;;;;36.86;38.04;100486.16;5072002;28;20517;-67
2023/08/22 11:57:45;;;;;;;5.18;2.35;;;;;;;37.09;37.38;100491.28;5072026;28;20469;-67
2023/08/22 12:00:12;;;;;;;2.97;2.23;;;;;;;37.61;36.23;100493.38;5071877;28;20136;-67
2023/08/22 12:02:42;;;;;;;2.67;2.03;;;;;;;38.24;35.97;100497.28;5072278;28;20032;-67
2023/08/22 12:05:08;;;;;;;3.88;2.10;;;;;;;38.31;35.24;100493.13;5071919;28;20502;-68
2023/08/22 12:07:43;;;;;;;2.43;1.93;;;;;;;39.10;34.20;100494.06;5071926;28;20044;-68
2023/08/22 12:10:12;;;;;;;4.63;2.05;;;;;;;38.61;34.60;100501.91;5071579;28;20283;-67
2023/08/22 12:12:38;;;;;;;5.60;2.33;;;;;;;39.15;35.07;100492.97;5072561;28;20077;-69
2023/08/22 12:15:04;;;;;;;2.28;1.92;;;;;;;38.70;34.68;100496.97;5072549;28;20041;-67
2023/08/22 12:17:31;;;;;;;3.53;2.08;;;;;;;39.14;32.34;100488.59;5072105;28;20178;-70
2023/08/22 12:19:56;;;;;;;5.38;2.13;;;;;;;39.37;33.25;100484.00;5070929;28;20110;-68
2023/08/22 12:22:22;;;;;;;2.10;1.77;;;;;;;38.55;33.26;100482.69;5071163;28;20032;-68
2023/08/22 12:24:48;;;;;;;2.50;1.83;;;;;;;39.31;32.93;100477.88;5071830;28;20523;-68
2023/08/22 12:27:14;;;;;;;2.97;1.88;;;;;;;39.16;33.52;100484.28;5071891;28;20032;-70
2023/08/22 12:29:40;;;;;;;2.67;1.98;;;;;;;38.88;33.01;100495.50;5070255;28;20039;-69
2023/08/22 12:32:06;;;;;;;2.90;2.08;;;;;;;38.56;32.94;100483.50;5071819;28;20033;-69
2023/08/22 12:34:31;;;;;;;3.05;1.88;;;;;;;38.20;32.87;100481.66;5071734;28;20553;-69
2023/08/22 12:36:57;;;;;;;3.40;1.90;;;;;;;39.09;32.39;100467.38;5071747;28;20090;-68
2023/08/22 12:39:22;;;;;;;3.33;1.80;;;;;;;39.39;32.55;100467.75;5071441;28;20079;-68
2023/08/22 12:41:48;;;;;;;2.93;1.60;;;;;;;38.95;34.12;100461.47;5071795;28;20048;-69
2023/08/22 12:44:13;;;;;;;3.33;1.73;;;;;;;38.96;33.59;100455.53;5075441;28;20048;-68
2023/08/22 12:46:39;;;;;;;3.25;1.88;;;;;;;39.19;32.70;100455.75;5075588;28;20040;-68
2023/08/22 12:49:04;;;;;;;2.92;1.90;;;;;;;38.99;33.51;100463.16;5075479;28;20109;-68
2023/08/22 12:51:30;;;;;;;3.00;1.77;;;;;;;39.83;33.04;100468.34;5075531;28;20073;-68
2023/08/22 12:53:55;;;;;;;2.47;1.93;;;;;;;39.32;32.70;100462.81;5075380;28;20633;-68
2023/08/22 12:56:26;;;;;;;4.23;2.40;;;;;;;39.13;32.26;100453.56;5075355;28;20044;-67
2023/08/22 12:58:51;;;;;;;3.97;1.85;;;;;;;39.78;32.04;100456.69;5075068;28;20040;-67
2023/08/22 13:01:17;;;;;;;4.65;2.08;;;;;;;39.87;31.60;100458.06;5075560;28;20033;-67
2023/08/22 13:03:42;;;;;;;3.40;1.80;;;;;;;40.05;32.05;100452.09;5075305;28;20044;-67
2023/08/22 13:06:07;;;;;;;4.37;1.87;;;;;;;39.73;31.36;100455.00;5075183;28;20047;-67
2023/08/22 13:08:33;;;;;;;4.00;1.60;;;;;;;39.02;32.00;100454.09;5074964;28;20102;-67
2023/08/22 13:10:58;;;;;;;3.00;2.00;;;;;;;39.32;32.87;100451.66;5074835;28;20032;-68
2023/08/22 13:13:24;;;;;;;3.00;1.90;;;;;;;38.98;32.59;100444.84;5075100;28;20051;-66
2023/08/22 13:15:50;;;;;;;4.30;2.07;;;;;;;39.21;32.83;100438.66;5074918;28;20097;-67
2023/08/22 13:18:17;;;;;;;4.05;2.20;;;;;;;39.10;32.65;100446.72;5074895;28;20163;-67
2023/08/22 13:20:42;;;;;;;2.75;1.50;;;;;;;39.41;31.83;100428.38;5074597;28;20483;-68
2023/08/22 13:23:08;;;;;;;2.90;1.80;;;;;;;39.74;32.34;100439.06;5074827;28;20120;-67
2023/08/22 13:25:33;;;;;;;3.80;1.97;;;;;;;38.79;32.29;100431.63;5074775;28;20290;-68
2023/08/22 13:27:58;;;;;;;2.60;1.50;;;;;;;39.09;32.06;100432.00;5074743;28;20067;-68
2023/08/22 13:30:24;;;;;;;4.23;2.10;;;;;;;39.22;32.28;100431.91;5074437;28;20040;-68
2023/08/22 13:32:50;;;;;;;3.95;1.75;;;;;;;39.65;32.62;100428.16;5074620;28;20087;-68
2023/08/22 13:35:16;;;;;;;2.13;1.83;;;;;;;39.76;30.94;100428.34;5074577;28;20033;-67
2023/08/22 13:37:42;;;;;;;3.47;1.52;;;;;;;40.13;31.07;100429.56;5074535;28;20062;-67
2023/08/22 13:40:08;;;;;;;3.65;1.80;;;;;;;39.43;30.75;100431.59;5074294;28;20036;-67
2023/08/22 13:42:34;;;;;;;4.20;2.30;;;;;;;38.90;31.69;100425.53;5073197;28;20090;-66
2023/08/22 13:44:59;;;;;;;3.23;1.80;;;;;;;38.50;32.73;100440.41;5074320;28;20487;-68
2023/08/22 13:47:24;;;;;;;3.13;1.80;;;;;;;37.46;33.63;100423.47;5074120;28;20033;-66
2023/08/22 13:49:51;;;;;;;3.80;2.00;;;;;;;36.93;34.68;100419.78;5074102;28;20683;-67
2023/08/22 13:52:16;;;;;;;2.05;1.75;;;;;;;36.35;36.72;100416.19;5073934;28;20075;-66
2023/08/22 13:54:42;;;;;;;3.83;2.23;;;;;;;35.53;37.47;100417.84;5073714;28;20442;-66
2023/08/22 13:57:07;;;;;;;3.67;2.10;;;;;;;35.23;37.00;100414.28;5074064;28;20040;-66
2023/08/22 13:59:34;;;;;;;4.17;2.27;;;;;;;35.16;38.82;100417.56;5073900;28;20071;-66
2023/08/22 14:02:00;;;;;;;2.35;2.10;;;;;;;35.25;38.45;100417.50;5074068;28;20036;-66
2023/08/22 14:04:25;;;;;;;4.07;2.20;;;;;;;34.90;40.05;100409.38;5074120;28;20033;-67
2023/08/22 14:06:52;;;;;;;2.70;2.13;;;;;;;34.73;39.79;100410.25;5073874;28;20043;-67
2023/08/22 14:09:17;;;;;;;;;;;;;;;34.95;39.38;100409.22;5074357;28;20410;-66
2023/08/22 14:11:43;;;;;;;3.05;1.83;;;;;;;35.01;39.56;100407.88;5073806;28;20019;-66
2023/08/22 14:14:08;;;;;;;4.47;2.00;;;;;;;34.93;39.73;100411.50;5073800;28;20657;-66
2023/08/22 14:16:33;;;;;;;3.10;2.10;;;;;;;34.95;39.35;100416.69;5073780;28;20407;-66
2023/08/22 14:18:59;;;;;;;2.47;2.10;;;;;;;34.80;39.66;100418.03;5073539;28;20040;-67
2023/08/22 14:21:24;;;;;;;3.57;2.27;;;;;;;34.97;39.56;100412.47;5073547;28;20040;-66
2023/08/22 14:23:50;;;;;;;3.80;2.40;;;;;;;34.83;39.20;100411.03;5073693;28;20032;-66
2023/08/22 14:26:16;;;;;;;3.10;2.40;;;;;;;34.52;40.63;100417.66;5073734;28;20036;-66
2023/08/22 14:28:41;;;;;;;4.53;2.20;;;;;;;34.34;40.26;100413.25;5073323;28;20115;-66
2023/08/22 14:31:07;;;;;;;3.87;2.23;;;;;;;34.26;40.47;100410.19;5073410;28;20115;-67
2023/08/22 14:33:33;;;;;;;3.67;2.30;;;;;;;34.15;39.08;100402.56;5073601;28;20047;-67
2023/08/22 14:36:03;;;;;;;2.93;1.97;;;;;;;33.96;40.23;100403.72;5073249;28;20047;-67
2023/08/22 14:38:28;;;;;;;3.70;1.92;;;;;;;34.14;41.15;100407.28;5072143;28;20036;-67
2023/08/22 14:40:58;;;;;;;2.27;1.73;;;;;;;33.89;40.64;100421.91;5073189;28;20047;-67
2023/08/22 14:43:26;;;;;;;3.42;2.10;;;;;;;33.85;40.66;100416.22;5073310;28;20060;-67
2023/08/22 14:45:52;;;;;;;5.00;2.00;;;;;;;33.86;41.45;100414.28;5073150;28;20040;-67
2023/08/22 14:48:18;;;;;;;2.28;1.73;;;;;;;33.84;41.71;100406.28;5072881;28;20032;-69
2023/08/22 14:50:43;;;;;;;3.30;1.83;;;;;;;33.79;41.34;100405.66;5072772;28;20115;-66
2023/08/22 14:53:15;;;;;;;3.20;1.93;;;;;;;33.57;40.98;100404.66;5073150;28;20428;-67
2023/08/22 14:55:53;;;;;;;3.35;2.00;;;;;;;33.59;42.18;100402.41;5072973;28;20496;-67
2023/08/22 14:58:19;;;;;;;3.15;2.00;;;;;;;33.58;41.60;100399.94;5072933;28;20127;-66
2023/08/22 15:00:45;;;;;;;5.30;2.37;;;;;;;33.59;42.59;100394.13;5072766;28;20235;-67
2023/08/22 15:03:10;;;;;;;4.63;2.30;;;;;;;33.44;41.69;100394.56;5072821;28;20081;-66
2023/08/22 15:05:37;;;;;;;3.87;2.03;;;;;;;33.41;41.81;100389.72;5071918;28;20374;-67
2023/08/22 15:08:03;;;;;;;;;;;;;;;33.45;41.49;100396.19;5073091;28;20041;-67
2023/08/22 15:10:29;;;;;;;3.53;2.15;;;;;;;33.29;42.15;100403.28;5072335;28;19996;-66
2023/08/22 15:12:55;;;;;;;4.95;2.25;;;;;;;33.36;42.05;100398.09;5072699;28;20045;-67
2023/08/22 15:15:20;;;;;;;2.93;2.13;;;;;;;33.23;42.92;100397.09;5072605;28;20419;-68
2023/08/22 15:17:45;;;;;;;3.33;2.03;;;;;;;33.29;42.83;100393.06;5072521;28;20089;-66
2023/08/22 15:20:13;;;;;;;3.07;2.20;;;;;;;33.04;42.75;100391.84;5070954;28;20041;-66
2023/08/22 15:22:39;;;;;;;4.35;2.33;;;;;;;33.08;42.68;100390.09;5072506;28;20040;-67
2023/08/22 15:25:04;;;;;;;3.20;1.97;;;;;;;33.10;42.57;100390.56;5072468;28;20514;-67
2023/08/22 15:27:30;;;;;;;2.53;2.00;;;;;;;33.11;43.23;100386.69;5072467;28;20040;-67
2023/08/22 15:29:55;;;;;;;2.93;2.03;;;;;;;33.09;42.74;100394.47;5072170;28;20024;-67
2023/08/22 15:32:21;;;;;;;3.53;2.40;;;;;;;32.99;42.84;100389.25;5072232;28;20510;-68
2023/08/22 15:34:46;;;;;;;3.13;1.77;;;;;;;32.89;41.67;100381.28;5072375;28;20052;-67
2023/08/22 15:37:12;;;;;;;4.60;1.87;;;;;;;32.75;42.59;100388.81;5072191;28;20039;-67
2023/08/22 15:39:37;;;;;;;3.27;2.00;;;;;;;32.84;42.73;100387.72;5071941;28;20129;-67